Latest Weather Observations for PORTABLE RFSNSW53

IDN60801

Issued at 3:52 pm EST Saturday 2 July 2022 (issued every 10 minutes, with the page automatically refreshed every 10 minutes)

About weather observations | Map of weather stations | Latest weather observations for NSW | Other Formats
Station Details ID: 250096 Name: PORTABLE RFSNSW53 Lat: -34.44 Lon: 146.90 Height: 205.0 m

Portable automatic weather stations (PAWS) are operated by other organisations, such as Fire and Emergency Services, and are included here by agreement. Portable stations may be deployed to a location for a short period and their location may be subject to change without notice. Wind observations from these stations are provided from heights of either three (3) or ten (10) metres above ground level (AGL).

Data from the previous 72 hours. | See also: Recent months for locations in New South Wales
Date/Time
EST
Temp
°C
App
Temp
°C
Dew
Point
°C
Rel
Hum
%
Delta-T
°C
Wind Press
QNH
hPa
Press
MSL
hPa
Rain since
9am
mm
Dir  Spd
km/h
Gust
km/h
Spd
kts
Gust
kts
02/03:40pm 11.5 10.6 9.3 86 1.1 SSE 4 6 2 3 - - 0.6
02/03:30pm 11.7 10.0 8.5 81 1.6 SSW 7 9 4 5 - - 0.6
02/03:20pm 12.0 9.9 8.2 77 1.9 SSW 9 11 5 6 - - 0.6
02/03:10pm 12.2 10.4 8.1 76 2.0 S 7 7 4 4 - - 0.6
02/03:00pm 12.4 10.6 7.8 73 2.3 S 7 9 4 5 - - 0.6
02/02:50pm 12.5 10.2 7.6 72 2.4 S 9 11 5 6 - - 0.6
02/02:40pm 12.6 10.4 7.9 73 2.3 S 9 11 5 6 - - 0.6
02/02:30pm 12.5 10.3 8.0 74 2.2 S 9 11 5 6 - - 0.6
02/02:20pm 12.4 10.2 7.8 73 2.3 S 9 11 5 6 - - 0.6
02/02:10pm 12.4 10.1 7.4 71 2.5 S 9 11 5 6 - - 0.6
02/02:00pm 12.2 9.5 7.2 71 2.4 S 11 13 6 7 - - 0.6
02/01:50pm 12.3 9.6 7.3 71 2.4 S 11 13 6 7 - - 0.6
02/01:40pm 12.5 9.8 7.2 70 2.6 S 11 13 6 7 - - 0.6
02/01:30pm 12.1 9.8 7.4 73 2.3 SSW 9 13 5 7 - - 0.6
02/01:20pm 12.2 9.1 7.2 71 2.4 S 13 15 7 8 - - 0.6
02/01:10pm 12.6 9.1 7.1 69 2.7 S 15 19 8 10 - - 0.6
02/01:00pm 12.1 9.0 7.2 72 2.4 SSW 13 17 7 9 - - 0.6
02/12:50pm 11.9 9.3 7.6 75 2.1 S 11 11 6 6 - - 0.6
02/12:40pm 11.8 9.5 7.4 74 2.1 SSW 9 13 5 7 - - 0.6
02/12:30pm 11.0 8.0 7.6 79 1.7 SSW 13 15 7 8 - - 0.6
02/12:20pm 10.8 7.7 7.4 79 1.6 SSW 13 17 7 9 - - 0.6
02/12:10pm 10.7 7.4 6.4 75 2.0 SSW 13 19 7 10 - - 0.6
02/12:00pm 10.7 6.7 6.8 77 1.9 SSW 17 20 9 11 - - 0.6
02/11:50am 10.7 7.2 7.3 79 1.6 SSW 15 19 8 10 - - 0.6
02/11:40am 9.9 6.5 6.1 77 1.8 S 13 15 7 8 - - 0.6
02/11:30am 9.5 5.5 6.7 83 1.3 SSW 17 20 9 11 - - 0.6
02/11:20am 9.2 5.6 6.9 85 1.1 SSW 15 19 8 10 - - 0.6
02/11:10am 9.1 6.0 7.1 87 0.9 SSW 13 17 7 9 - - 0.6
02/11:00am 8.7 6.3 7.1 90 0.8 SSW 9 11 5 6 - - 0.6
02/10:50am 8.6 6.2 7.2 91 0.7 SW 9 13 5 7 - - 0.6
02/10:40am 8.5 6.5 7.2 91 0.6 SSW 7 15 4 8 - - 0.6
02/10:30am 8.3 6.3 7.1 92 0.6 S 7 9 4 5 - - 0.4
02/10:20am 8.3 6.3 7.1 92 0.6 S 7 9 4 5 - - 0.4
02/10:10am 8.4 6.0 6.9 90 0.7 S 9 11 5 6 - - 0.0
02/10:00am 8.4 6.0 7.0 91 0.7 S 9 13 5 7 - - 0.0
02/09:50am 8.3 5.9 7.1 92 0.6 S 9 11 5 6 - - 0.0
02/09:40am 8.1 6.0 6.8 91 0.6 S 7 11 4 6 - - 0.0
02/09:30am 7.9 5.4 6.4 90 0.7 S 9 11 5 6 - - 0.0
02/09:20am 7.7 5.2 6.5 92 0.6 S 9 11 5 6 - - 0.0
02/09:10am 7.7 5.3 6.8 94 0.4 SSW 9 11 5 6 - - 0.0
02/09:00am 7.6 5.6 7.0 96 0.3 S 7 9 4 5 - - 12.6
02/08:50am 7.7 5.9 7.2 97 0.2 S 6 7 3 4 - - 12.4
02/08:40am 7.7 5.7 7.2 97 0.2 S 7 9 4 5 - - 12.2
02/08:30am 7.7 5.3 7.2 97 0.2 S 9 11 5 6 - - 12.2
02/08:20am 7.7 5.3 7.2 97 0.2 S 9 9 5 5 - - 12.2
02/08:10am 7.7 5.7 7.3 97 0.2 SSE 7 9 4 5 - - 12.2
02/08:00am 7.7 5.9 7.3 97 0.2 SSE 6 9 3 5 - - 12.0
02/07:50am 7.7 5.7 7.3 97 0.2 SSW 7 9 4 5 - - 12.0
02/07:40am 7.7 5.8 7.4 98 0.1 S 7 9 4 5 - - 11.8
02/07:30am 7.7 5.8 7.4 98 0.1 S 7 11 4 6 - - 11.6
02/07:20am 7.8 5.5 7.5 98 0.1 SSW 9 11 5 6 - - 11.2
02/07:10am 7.8 5.5 7.5 98 0.1 SSW 9 11 5 6 - - 10.8
02/07:00am 7.8 5.5 7.5 98 0.1 S 9 9 5 5 - - 10.4
02/06:50am 7.8 5.5 7.5 98 0.1 S 9 11 5 6 - - 10.2
02/06:40am 7.8 5.9 7.5 98 0.1 S 7 9 4 5 - - 10.0
02/06:30am 7.8 5.5 7.5 98 0.1 S 9 9 5 5 - - 10.0
02/06:20am 7.9 5.6 7.6 98 0.1 S 9 11 5 6 - - 9.8
02/06:10am 7.9 6.0 7.6 98 0.1 S 7 9 4 5 - - 9.6
02/06:00am 7.9 5.6 7.5 97 0.2 S 9 9 5 5 - - 9.4
02/05:50am 7.9 6.0 7.5 97 0.2 S 7 9 4 5 - - 9.2
02/05:40am 7.9 6.0 7.6 98 0.1 S 7 9 4 5 - - 9.2
02/05:30am 7.9 5.6 7.6 98 0.1 SSE 9 11 5 6 - - 9.0
02/05:20am 7.9 5.6 7.6 98 0.1 SSE 9 13 5 7 - - 8.8
02/05:10am 7.9 5.3 7.6 98 0.1 SSE 11 11 6 6 - - 8.8
02/05:00am 7.9 5.3 7.6 98 0.1 S 11 13 6 7 - - 8.6
02/04:50am 7.9 5.3 7.6 98 0.1 S 11 13 6 7 - - 8.4
02/04:40am 7.9 5.3 7.6 98 0.1 S 11 13 6 7 - - 8.0
02/04:30am 7.9 5.3 7.6 98 0.1 S 11 13 6 7 - - 7.6
02/04:20am 7.9 5.3 7.6 98 0.1 S 11 13 6 7 - - 7.4
02/04:10am 7.9 5.3 7.6 98 0.1 S 11 15 6 8 - - 7.2
02/04:00am 7.9 4.9 7.6 98 0.1 S 13 15 7 8 - - 7.2
02/03:50am 7.9 4.9 7.6 98 0.1 S 13 17 7 9 - - 7.0
02/03:40am 7.9 4.9 7.6 98 0.1 S 13 15 7 8 - - 6.8
02/03:30am 7.9 4.9 7.6 98 0.1 S 13 15 7 8 - - 6.6
02/03:20am 7.9 4.5 7.6 98 0.1 S 15 17 8 9 - - 6.2
02/03:10am 7.9 4.5 7.6 98 0.1 S 15 17 8 9 - - 6.2
02/03:00am 7.9 4.9 7.6 98 0.1 S 13 15 7 8 - - 6.0
02/02:50am 7.9 4.9 7.5 97 0.2 S 13 15 7 8 - - 6.0
02/02:40am 7.9 5.2 7.5 97 0.2 S 11 11 6 6 - - 6.0
02/02:30am 7.9 5.2 7.5 97 0.2 S 11 13 6 7 - - 6.0
02/02:20am 7.9 5.2 7.5 97 0.2 S 11 11 6 6 - - 6.0
02/02:10am 7.9 5.2 7.5 97 0.2 S 11 11 6 6 - - 6.0
02/02:00am 7.8 5.5 7.5 98 0.1 SSE 9 11 5 6 - - 6.0
02/01:50am 7.9 5.6 7.5 97 0.2 S 9 11 5 6 - - 6.0
02/01:40am 7.9 5.2 7.5 97 0.2 S 11 13 6 7 - - 5.8
02/01:30am 7.8 5.1 7.5 98 0.1 S 11 11 6 6 - - 5.8
02/01:20am 7.8 5.5 7.5 98 0.1 SSE 9 11 5 6 - - 5.8
02/01:10am 7.9 5.6 7.5 97 0.2 S 9 11 5 6 - - 5.8
02/01:00am 7.9 5.6 7.5 97 0.2 S 9 9 5 5 - - 5.8
02/12:50am 7.9 5.6 7.5 97 0.2 S 9 9 5 5 - - 5.8
02/12:40am 7.9 5.6 7.5 97 0.2 S 9 11 5 6 - - 5.6
02/12:30am 7.9 5.6 7.5 97 0.2 S 9 9 5 5 - - 5.6
02/12:20am 8.0 6.1 7.6 97 0.2 S 7 9 4 5 - - 5.4
02/12:10am 8.0 6.1 7.5 97 0.2 S 7 9 4 5 - - 5.2
02/12:00am 8.0 6.1 7.6 97 0.2 S 7 7 4 4 - - 5.2
 
Date/Time
EST
Temp
°C
App
Temp
°C
Dew
Point
°C
Rel
Hum
%
Delta-T
°C
Wind Press
QNH
hPa
Press
MSL
hPa
Rain since
9am
mm
Dir  Spd
km/h
Gust
km/h
Spd
kts
Gust
kts
01/11:50pm 8.0 6.1 7.6 97 0.2 S 7 9 4 5 - - 5.2
01/11:40pm 8.1 6.2 7.6 97 0.2 S 7 9 4 5 - - 5.2
01/11:30pm 8.0 6.1 7.7 98 0.1 S 7 9 4 5 - - 5.2
01/11:20pm 8.0 6.1 7.6 97 0.2 S 7 11 4 6 - - 5.0
01/11:10pm 8.0 5.7 7.6 97 0.2 SSW 9 11 5 6 - - 5.0
01/11:00pm 7.9 6.0 7.5 97 0.2 SSW 7 9 4 5 - - 5.0
01/10:50pm 7.7 5.8 7.4 98 0.1 S 7 9 4 5 - - 5.0
01/10:40pm 7.7 5.7 7.3 97 0.2 SSW 7 7 4 4 - - 4.8
01/10:30pm 7.7 5.9 7.3 97 0.2 S 6 7 3 4 - - 4.8
01/10:20pm 7.7 5.9 7.3 97 0.2 S 6 7 3 4 - - 4.8
01/10:10pm 7.7 5.9 7.3 97 0.2 S 6 7 3 4 - - 4.6
01/10:00pm 7.7 5.9 7.3 97 0.2 S 6 6 3 3 - - 4.6
01/09:50pm 7.7 5.9 7.3 97 0.2 S 6 7 3 4 - - 4.4
01/09:40pm 7.7 6.3 7.2 97 0.2 S 4 6 2 3 - - 4.4
01/09:30pm 7.7 6.3 7.2 97 0.2 S 4 6 2 3 - - 4.4
01/09:20pm 7.7 6.3 7.2 97 0.2 S 4 4 2 2 - - 4.2
01/09:10pm 7.8 6.4 7.3 97 0.2 S 4 4 2 2 - - 4.0
01/09:00pm 7.8 6.4 7.3 97 0.2 S 4 4 2 2 - - 3.8
01/08:50pm 7.9 6.5 7.3 96 0.3 SSE 4 6 2 3 - - 3.6
01/08:40pm 7.9 6.1 7.3 96 0.3 SSE 6 7 3 4 - - 3.4
01/08:30pm 8.0 6.3 7.4 96 0.3 SSE 6 7 3 4 - - 3.2
01/08:20pm 8.1 6.4 7.4 95 0.3 SE 6 7 3 4 - - 3.0
01/08:10pm 8.1 6.4 7.4 95 0.3 SSE 6 7 3 4 - - 2.6
01/08:00pm 8.2 6.3 7.4 95 0.4 SSE 7 7 4 4 - - 2.2
01/07:50pm 8.3 6.0 7.3 93 0.5 SSE 9 11 5 6 - - 2.0
01/07:40pm 8.3 5.6 7.2 93 0.5 SE 11 11 6 6 - - 1.6
01/07:30pm 8.3 5.9 7.1 92 0.6 SE 9 11 5 6 - - 1.6
01/07:20pm 8.4 6.0 7.0 91 0.7 SE 9 11 5 6 - - 1.6
01/07:10pm 8.4 6.0 7.1 91 0.6 SE 9 9 5 5 - - 1.4
01/07:00pm 8.5 6.1 7.0 90 0.7 SE 9 11 5 6 - - 1.4
01/06:50pm 8.6 6.2 6.9 89 0.8 SE 9 11 5 6 - - 1.4
01/06:40pm 8.6 6.2 6.8 88 0.8 SE 9 11 5 6 - - 1.2
01/06:30pm 8.6 5.8 6.8 88 0.8 SE 11 11 6 6 - - 1.2
01/06:20pm 8.4 6.0 6.9 90 0.7 SE 9 11 5 6 - - 1.2
01/06:10pm 8.3 6.5 7.0 91 0.6 SE 6 7 3 4 - - 1.2
01/06:00pm 8.3 6.9 7.2 93 0.5 SE 4 6 2 3 - - 1.2
01/05:50pm 8.4 6.6 7.3 93 0.5 SSE 6 6 3 3 - - 1.2
01/05:40pm 8.4 6.7 7.5 94 0.4 SSE 6 6 3 3 - - 1.2
01/05:30pm 8.6 6.9 7.6 93 0.5 SSE 6 6 3 3 - - 1.2
01/05:20pm 8.8 7.5 7.7 93 0.5 SSE 4 6 2 3 - - 1.2
01/05:10pm 9.0 7.7 7.7 91 0.6 SSE 4 6 2 3 - - 1.2
01/05:00pm 9.1 7.8 7.5 90 0.8 SSE 4 4 2 2 - - 1.2
01/04:50pm 9.2 7.5 7.6 90 0.8 SSE 6 7 3 4 - - 1.0
01/04:40pm 9.4 7.7 7.7 89 0.8 S 6 6 3 3 - - 1.0
01/04:30pm 9.4 8.1 7.8 90 0.8 S 4 4 2 2 - - 1.0
01/04:20pm 9.2 7.5 7.6 90 0.8 SSE 6 7 3 4 - - 1.0
01/04:10pm 9.2 6.8 6.8 85 1.1 SE 9 11 5 6 - - 1.0
01/04:00pm 9.2 6.4 6.8 85 1.1 SE 11 15 6 8 - - 1.0
01/03:50pm 9.2 6.9 7.3 88 0.9 SE 9 11 5 6 - - 1.0
01/03:40pm 9.3 6.6 7.4 88 0.9 ESE 11 13 6 7 - - 1.0
01/03:30pm 9.3 6.6 7.2 87 1.0 ESE 11 15 6 8 - - 0.8
01/03:20pm 9.3 6.6 7.5 88 0.9 ESE 11 13 6 7 - - 0.8
01/03:10pm 9.3 6.6 7.3 87 1.0 ESE 11 11 6 6 - - 0.8
01/03:00pm 9.3 6.9 7.2 87 1.0 ESE 9 13 5 7 - - 0.8
01/02:50pm 9.3 7.4 7.6 89 0.8 SE 7 11 4 6 - - 0.8
01/02:40pm 9.4 6.7 7.3 87 1.0 SE 11 11 6 6 - - 0.8
01/02:30pm 9.6 7.0 7.6 87 1.0 SE 11 15 6 8 - - 0.6
01/02:20pm 10.1 7.0 7.3 83 1.3 SE 13 13 7 7 - - 0.2
01/02:10pm 10.8 8.2 7.7 81 1.5 SSE 11 13 6 7 - - 0.0
01/02:00pm 11.4 9.1 7.3 76 2.0 S 9 11 5 6 - - 0.0
01/01:50pm 11.6 9.2 7.1 74 2.2 S 9 11 5 6 - - 0.0
01/01:40pm 11.7 9.3 6.8 72 2.4 S 9 11 5 6 - - 0.0
01/01:30pm 11.7 9.1 6.1 68 2.7 SSE 9 13 5 7 - - 0.0
01/01:20pm 11.9 8.4 5.6 65 3.0 SSE 13 17 7 9 - - 0.0
01/01:10pm 12.1 8.7 5.9 66 2.9 SSE 13 17 7 9 - - 0.0
01/01:00pm 12.2 9.3 6.6 68 2.7 SSE 11 15 6 8 - - 0.0
01/12:50pm 12.5 8.9 6.7 68 2.8 SSE 15 17 8 9 - - 0.0
01/12:40pm 12.6 9.5 7.2 69 2.6 S 13 17 7 9 - - 0.0
01/12:30pm 13.0 9.8 6.9 66 3.0 S 13 17 7 9 - - 0.0
01/12:20pm 12.3 9.5 6.9 69 2.6 S 11 13 6 7 - - 0.0
01/12:10pm 12.0 9.6 6.8 70 2.5 S 9 11 5 6 - - 0.0
01/12:00pm 11.4 8.3 7.2 75 2.0 SSW 13 17 7 9 - - 0.0
01/11:50am 11.6 8.9 7.5 76 2.0 SSW 11 15 6 8 - - 0.0
01/11:40am 11.1 8.7 7.1 76 1.9 S 9 11 5 6 - - 0.0
01/11:30am 10.7 8.3 7.0 78 1.8 S 9 13 5 7 - - 0.0
01/11:20am 11.0 8.5 6.7 75 2.1 S 9 11 5 6 - - 0.0
01/11:10am 11.2 8.2 6.0 70 2.5 SSE 11 13 6 7 - - 0.0
01/11:00am 11.5 8.5 6.1 69 2.6 SSE 11 17 6 9 - - 0.0
01/10:50am 11.8 8.3 5.6 66 2.9 SE 13 15 7 8 - - 0.0
01/10:40am 11.6 8.1 5.5 66 2.9 SE 13 17 7 9 - - 0.0
01/10:30am 12.0 7.7 5.3 63 3.1 ESE 17 22 9 12 - - 0.0
01/10:20am 11.8 7.9 5.3 64 3.0 ESE 15 19 8 10 - - 0.0
01/10:10am 12.0 7.8 5.9 66 2.9 ESE 17 19 9 10 - - 0.0
01/10:00am 11.5 7.7 5.6 67 2.8 ESE 15 24 8 13 - - 0.0
01/09:50am 10.6 8.1 6.7 77 1.9 SSE 9 11 5 6 - - 0.0
01/09:40am 10.1 7.7 7.1 81 1.4 S 9 11 5 6 - - 0.0
01/09:30am 9.9 7.5 6.8 81 1.5 S 9 13 5 7 - - 0.0
01/09:20am 9.3 7.4 6.8 84 1.2 SSE 6 7 3 4 - - 0.0
01/09:10am 8.5 6.6 6.6 88 0.9 SSE 6 7 3 4 - - 0.0
01/09:00am 7.6 6.0 6.3 91 0.6 SSE 4 6 2 3 - - 0.0
01/08:50am 6.9 4.9 6.2 95 0.3 S 6 7 3 4 - - 0.0
01/08:40am 6.2 4.1 5.7 97 0.2 S 6 6 3 3 - - 0.0
01/08:30am 5.5 3.3 5.1 97 0.2 S 6 7 3 4 - - 0.0
01/08:20am 5.0 2.7 4.6 97 0.2 S 6 7 3 4 - - 0.0
01/08:10am 4.4 1.8 4.0 97 0.2 SSE 7 9 4 5 - - 0.0
01/08:00am 3.9 1.2 3.6 98 0.1 S 7 9 4 5 - - 0.0
01/07:50am 3.8 0.7 3.5 98 0.1 SSE 9 11 5 6 - - 0.0
01/07:40am 3.4 -0.2 3.2 99 0.1 SE 11 13 6 7 - - 0.0
01/07:30am 3.2 0.0 2.9 98 0.1 SSE 9 11 5 6 - - 0.0
01/07:20am 3.0 -0.3 2.7 98 0.1 SSE 9 11 5 6 - - 0.0
01/07:10am 2.4 -0.4 2.1 98 0.1 SE 6 9 3 5 - - 0.0
01/07:00am 2.4 -0.6 2.0 97 0.2 SSE 7 9 4 5 - - 0.0
01/06:50am 2.3 -1.1 1.9 97 0.2 SSE 9 9 5 5 - - 0.0
01/06:40am 2.7 -0.2 2.4 98 0.1 SSE 7 9 4 5 - - 0.0
01/06:30am 2.8 0.1 2.4 97 0.2 SE 6 6 3 3 - - 0.0
01/06:20am 2.7 -0.1 2.3 97 0.2 SSE 6 7 3 4 - - 0.0
01/06:10am 2.9 0.2 2.5 97 0.2 S 6 6 3 3 - - 0.0
01/06:00am 3.4 0.6 3.0 97 0.2 S 7 13 4 7 - - 0.0
01/05:50am 2.9 0.2 2.5 97 0.2 S 6 9 3 5 - - 0.0
01/05:40am 2.7 -0.1 2.3 97 0.2 S 6 7 3 4 - - 0.0
01/05:30am 2.7 -0.3 2.2 96 0.2 SSE 7 7 4 4 - - 0.0
01/05:20am 2.8 -0.2 2.3 96 0.2 SSE 7 7 4 4 - - 0.0
01/05:10am 3.1 0.2 2.5 96 0.2 SSE 7 7 4 4 - - 0.0
01/05:00am 3.6 0.8 3.1 97 0.2 SSE 7 7 4 4 - - 0.0
01/04:50am 4.0 1.5 3.6 97 0.2 SSE 6 7 3 4 - - 0.0
01/04:40am 4.3 1.6 3.9 97 0.2 SSE 7 7 4 4 - - 0.0
01/04:30am 4.8 2.2 4.4 97 0.2 SE 7 9 4 5 - - 0.0
01/04:20am 4.7 2.1 4.4 98 0.1 SE 7 9 4 5 - - 0.0
01/04:10am 4.5 2.1 4.1 97 0.2 SSE 6 7 3 4 - - 0.0
01/04:00am 4.4 1.8 4.0 97 0.2 SSE 7 9 4 5 - - 0.0
01/03:50am 4.2 1.1 3.8 97 0.2 SE 9 9 5 5 - - 0.0
01/03:40am 4.0 1.3 3.5 97 0.2 SSE 7 9 4 5 - - 0.0
01/03:30am 4.0 1.2 3.4 96 0.2 SSE 7 7 4 4 - - 0.0
01/03:20am 3.8 1.0 3.2 96 0.2 SSE 7 7 4 4 - - 0.0
01/03:10am 3.8 1.2 3.1 95 0.3 S 6 7 3 4 - - 0.0
01/03:00am 4.4 1.7 3.7 95 0.3 S 7 9 4 5 - - 0.0
01/02:50am 4.4 2.3 3.8 96 0.3 SSW 4 9 2 5 - - 0.0
01/02:40am 4.6 2.0 4.0 96 0.3 SSW 7 7 4 4 - - 0.0
01/02:30am 4.8 2.7 4.1 95 0.3 SSW 4 6 2 3 - - 0.0
01/02:20am 5.0 3.0 4.3 95 0.3 S 4 6 2 3 - - 0.0
01/02:10am 5.3 3.0 4.7 96 0.3 S 6 7 3 4 - - 0.0
01/02:00am 5.2 2.9 4.7 97 0.2 S 6 7 3 4 - - 0.0
01/01:50am 5.1 2.7 4.5 96 0.3 SSE 6 7 3 4 - - 0.0
01/01:40am 4.8 2.2 4.2 96 0.3 SSE 7 7 4 4 - - 0.0
01/01:30am 4.7 2.1 4.0 95 0.3 SSE 7 7 4 4 - - 0.0
01/01:20am 5.0 2.4 4.4 96 0.3 SSE 7 9 4 5 - - 0.0
01/01:10am 4.7 2.1 4.1 96 0.3 SSE 7 9 4 5 - - 0.0
01/01:00am 4.7 2.0 3.9 95 0.3 SSE 7 7 4 4 - - 0.0
01/12:50am 5.2 2.8 4.4 95 0.3 SSE 6 7 3 4 - - 0.0
01/12:40am 5.0 3.0 4.2 95 0.3 SW 4 7 2 4 - - 0.0
01/12:30am 5.3 3.7 4.6 95 0.3 ENE 2 4 1 2 - - 0.0
01/12:20am 5.3 2.8 4.7 96 0.3 SE 7 9 4 5 - - 0.0
01/12:10am 5.1 2.5 4.3 95 0.3 SSE 7 9 4 5 - - 0.0
01/12:00am 5.2 2.6 4.3 94 0.4 SSE 7 7 4 4 - - 0.0
 
Date/Time
EST
Temp
°C
App
Temp
°C
Dew
Point
°C
Rel
Hum
%
Delta-T
°C
Wind Press
QNH
hPa
Press
MSL
hPa
Rain since
9am
mm
Dir  Spd
km/h
Gust
km/h
Spd
kts
Gust
kts
30/11:50pm 5.8 3.3 4.6 92 0.5 SSE 7 7 4 4 - - 0.0
30/11:40pm 6.6 4.4 5.3 91 0.6 SE 6 7 3 4 - - 0.0
30/11:30pm 7.0 4.8 5.4 89 0.7 S 6 7 3 4 - - 0.0
30/11:20pm 7.2 4.2 5.8 91 0.6 SSW 11 13 6 7 - - 0.0
30/11:10pm 7.3 3.9 5.9 91 0.6 SSW 13 15 7 8 - - 0.0
30/11:00pm 7.6 5.0 6.0 90 0.7 SSW 9 11 5 6 - - 0.0
30/10:50pm 7.6 4.6 6.0 90 0.7 SSW 11 15 6 8 - - 0.0
30/10:40pm 7.6 5.6 6.4 92 0.6 SE 6 9 3 5 - - 0.0
30/10:30pm 7.8 5.9 6.6 92 0.6 SE 6 7 3 4 - - 0.0
30/10:20pm 7.9 6.0 6.7 92 0.6 SSE 6 7 3 4 - - 0.0
30/10:10pm 8.0 5.9 6.7 91 0.6 S 7 9 4 5 - - 0.0
30/10:00pm 7.9 6.0 6.8 93 0.5 S 6 7 3 4 - - 0.0
30/09:50pm 7.8 5.7 6.5 91 0.6 S 7 9 4 5 - - 0.0
30/09:40pm 7.2 4.6 6.1 93 0.5 SSW 9 13 5 7 - - 0.0
30/09:30pm 6.8 4.6 5.5 91 0.6 S 6 7 3 4 - - 0.0
30/09:20pm 7.1 4.8 5.7 91 0.6 S 7 7 4 4 - - 0.0
30/09:10pm 7.0 4.7 5.7 91 0.6 SSE 7 7 4 4 - - 0.0
30/09:00pm 7.3 5.2 5.8 90 0.7 SSE 6 7 3 4 - - 0.0
30/08:50pm 7.6 5.4 6.0 90 0.7 SSE 7 7 4 4 - - 0.0
30/08:40pm 8.0 5.4 5.9 86 1.0 SE 9 9 5 5 - - 0.0
30/08:30pm 8.1 5.5 6.2 88 0.9 SE 9 9 5 5 - - 0.0
30/08:20pm 8.1 6.0 6.5 90 0.7 SE 7 7 4 4 - - 0.0
30/08:10pm 7.9 5.8 6.6 91 0.6 SSE 7 9 4 5 - - 0.0
30/08:00pm 7.3 5.3 6.4 94 0.4 SSE 6 7 3 4 - - 0.0
30/07:50pm 6.7 4.4 5.8 94 0.4 S 7 9 4 5 - - 0.0
30/07:40pm 6.6 4.2 5.2 91 0.6 SSW 7 9 4 5 - - 0.0
30/07:30pm 6.9 4.7 5.3 89 0.7 SSW 6 7 3 4 - - 0.0
30/07:20pm 7.3 5.5 5.5 88 0.8 S 4 7 2 4 - - 0.0
30/07:10pm 8.8 7.1 5.7 81 1.4 E 4 6 2 3 - - 0.0
30/07:00pm 9.8 7.8 6.3 79 1.6 E 6 6 3 3 - - 0.0
30/06:50pm 10.3 8.1 6.4 77 1.8 E 7 7 4 4 - - 0.0
30/06:40pm 10.6 8.4 6.3 75 2.0 E 7 7 4 4 - - 0.0
30/06:30pm 10.6 8.4 6.2 74 2.1 ESE 7 9 4 5 - - 0.0
30/06:20pm 10.3 7.4 6.4 77 1.8 SE 11 11 6 6 - - 0.0
30/06:10pm 9.7 6.8 6.3 79 1.6 ESE 11 13 6 7 - - 0.0
30/06:00pm 9.9 8.1 7.2 83 1.3 SE 6 7 3 4 - - 0.0
30/05:50pm 10.8 8.8 7.1 78 1.8 SE 7 9 4 5 - - 0.0
30/05:40pm 11.1 9.1 6.9 75 2.0 SE 7 9 4 5 - - 0.0
30/05:30pm 11.1 9.4 7.5 78 1.8 SE 6 7 3 4 - - 0.0
30/05:20pm 11.4 9.5 7.5 77 1.9 SE 7 7 4 4 - - 0.0
30/05:10pm 11.7 10.1 8.2 79 1.7 SSE 6 6 3 3 - - 0.0
30/05:00pm 12.2 10.6 8.2 76 2.0 SSE 6 7 3 4 - - 0.0
30/04:50pm 12.9 11.1 7.1 68 2.8 E 6 6 3 3 - - 0.0
30/04:40pm 13.2 11.4 7.0 66 3.0 E 6 6 3 3 - - 0.0
30/04:30pm 13.4 11.6 7.1 65 3.1 E 6 6 3 3 - - 0.0
30/04:20pm 13.6 12.2 7.3 65 3.1 E 4 6 2 3 - - 0.0
30/04:10pm 13.8 11.9 7.4 65 3.2 E 7 9 4 5 - - 0.0
30/04:00pm 13.9 11.9 6.9 62 3.4 E 7 9 4 5 - - 0.0
30/03:50pm 14.0 12.1 7.4 64 3.3 ENE 7 9 4 5 - - 0.0
30/03:40pm 14.1 12.1 7.1 62 3.5 NE 7 9 4 5 - - 0.0
30/03:30pm 14.4 12.0 7.1 61 3.6 ENE 9 13 5 7 - - 0.0
30/03:20pm 15.0 12.3 7.4 60 3.8 ENE 11 13 6 7 - - 0.0
30/03:10pm 15.2 12.9 7.3 59 3.9 NE 9 13 5 7 - - 0.0
30/03:00pm 15.4 13.4 7.1 57 4.1 ENE 7 9 4 5 - - 0.0
30/02:50pm 15.1 12.7 6.8 57 4.1 ENE 9 11 5 6 - - 0.0
30/02:40pm 14.4 11.7 7.4 63 3.5 NNE 11 13 6 7 - - 0.0
30/02:30pm 14.3 11.5 7.1 62 3.6 NE 11 13 6 7 - - 0.0
30/02:20pm 14.1 10.9 6.7 61 3.6 NE 13 15 7 8 - - 0.0
30/02:10pm 14.1 10.8 6.5 60 3.7 NNE 13 15 7 8 - - 0.0
30/02:00pm 14.0 10.8 7.0 62 3.4 NE 13 15 7 8 - - 0.0
30/01:50pm 13.8 10.8 7.8 67 3.0 NE 13 15 7 8 - - 0.0
30/01:40pm 13.8 11.1 7.4 65 3.2 NE 11 13 6 7 - - 0.0
30/01:30pm 13.7 11.1 7.7 67 3.0 NE 11 13 6 7 - - 0.0
30/01:20pm 13.3 10.7 7.9 70 2.7 NE 11 13 6 7 - - 0.0
30/01:10pm 13.1 10.5 7.6 69 2.7 NE 11 15 6 8 - - 0.0
30/01:00pm 13.0 10.0 7.8 70 2.6 NE 13 15 7 8 - - 0.0
30/12:50pm 12.9 10.2 7.5 69 2.7 NE 11 15 6 8 - - 0.0
30/12:40pm 12.8 10.3 8.1 73 2.3 ENE 11 13 6 7 - - 0.0
30/12:30pm 12.6 9.6 7.5 71 2.5 NE 13 15 7 8 - - 0.0
30/12:20pm 12.7 9.7 7.6 71 2.5 NE 13 15 7 8 - - 0.0
30/12:10pm 12.7 9.3 7.5 70 2.6 NE 15 17 8 9 - - 0.0
30/12:00pm 12.7 9.7 7.9 72 2.4 NE 13 15 7 8 - - 0.0
30/11:50am 12.5 9.1 7.5 71 2.5 NE 15 17 8 9 - - 0.0
30/11:40am 12.2 8.8 7.6 73 2.3 NE 15 17 8 9 - - 0.0
30/11:30am 12.0 8.6 7.5 74 2.2 NE 15 19 8 10 - - 0.0
30/11:20am 11.4 8.3 7.3 76 2.0 NE 13 15 7 8 - - 0.0
30/11:10am 11.0 7.6 7.5 79 1.7 NE 15 17 8 9 - - 0.0
30/11:00am 10.7 7.2 7.1 78 1.7 NE 15 17 8 9 - - 0.0
30/10:50am 10.5 7.4 7.3 80 1.5 NE 13 15 7 8 - - 0.0
30/10:40am 10.4 7.3 7.4 82 1.4 ENE 13 17 7 9 - - 0.0
30/10:30am 10.3 8.4 7.4 82 1.4 NNE 7 11 4 6 - - 0.0
30/10:20am 10.2 8.3 7.4 83 1.4 NNE 7 9 4 5 - - 0.0
30/10:10am 9.9 7.2 7.2 83 1.3 ENE 11 13 6 7 - - 0.0
30/10:00am 9.7 6.9 7.1 84 1.2 ENE 11 11 6 6 - - 0.0
30/09:50am 9.4 8.0 7.2 86 1.0 NNE 4 6 2 3 - - 0.0
30/09:40am 9.3 7.4 6.9 85 1.1 NNE 6 7 3 4 - - 0.0
30/09:30am 9.1 7.2 6.8 85 1.1 ENE 6 9 3 5 - - 0.0
30/09:20am 8.6 7.2 7.1 90 0.7 ESE 4 4 2 2 - - 0.0
30/09:10am 8.3 6.8 6.9 91 0.7 NE 4 6 2 3 - - 0.0
30/09:00am 7.9 6.4 6.6 91 0.6 NW 4 6 2 3 - - 0.0
30/08:50am 7.6 6.0 6.4 92 0.6 W 4 4 2 2 - - 0.0
30/08:40am 7.5 5.9 6.5 93 0.5 WNW 4 6 2 3 - - 0.0
30/08:30am 7.5 5.3 6.4 93 0.5 W 7 9 4 5 - - 0.0
30/08:20am 7.8 5.6 6.4 91 0.6 NNE 7 13 4 7 - - 0.0
30/08:10am 7.8 4.8 6.1 89 0.8 ENE 11 13 6 7 - - 0.0
30/08:00am 7.8 4.8 6.1 89 0.8 ENE 11 13 6 7 - - 0.0
30/07:50am 7.8 4.4 6.1 89 0.8 ENE 13 13 7 7 - - 0.0
30/07:40am 7.7 4.7 6.1 90 0.7 ENE 11 13 6 7 - - 0.0
30/07:30am 7.7 4.3 6.1 90 0.7 ENE 13 15 7 8 - - 0.0
30/07:20am 7.6 5.0 6.2 91 0.6 ENE 9 13 5 7 - - 0.0
30/07:10am 7.5 4.9 6.2 91 0.6 NE 9 9 5 5 - - 0.0
30/07:00am 7.7 4.4 6.2 90 0.7 ENE 13 15 7 8 - - 0.0
30/06:50am 7.6 3.9 6.1 90 0.7 ENE 15 17 8 9 - - 0.0
30/06:40am 7.5 3.8 6.1 91 0.6 ENE 15 15 8 8 - - 0.0
30/06:30am 7.7 4.0 6.1 90 0.7 ENE 15 17 8 9 - - 0.0
30/06:20am 7.5 4.5 6.0 90 0.7 ENE 11 15 6 8 - - 0.0
30/06:10am 6.9 4.7 6.1 95 0.4 E 7 13 4 7 - - 0.0
30/06:00am 6.5 5.2 6.0 97 0.2 E 2 6 1 3 - - 0.0
30/05:50am 6.4 4.7 5.9 97 0.2 NE 4 6 2 3 - - 0.0
30/05:40am 6.2 4.5 5.8 97 0.2 NE 4 6 2 3 - - 0.0
30/05:30am 5.9 4.1 5.4 97 0.2 NE 4 4 2 2 - - 0.0
30/05:20am 5.9 4.1 5.4 97 0.2 NE 4 4 2 2 - - 0.0
30/05:10am 5.9 4.5 5.5 97 0.2 NE 2 4 1 2 - - 0.0
30/05:00am 5.9 3.7 5.5 97 0.2 ENE 6 6 3 3 - - 0.0
30/04:50am 6.0 4.2 5.6 97 0.2 ENE 4 6 2 3 - - 0.0
30/04:40am 6.0 4.2 5.6 97 0.2 E 4 6 2 3 - - 0.0
30/04:30am 5.9 4.1 5.5 97 0.2 E 4 6 2 3 - - 0.0
30/04:20am 5.9 4.1 5.4 97 0.2 NNE 4 4 2 2 - - 0.0
30/04:10am 5.9 4.5 5.5 97 0.2 N 2 2 1 1 - - 0.0
30/04:00am 5.8 4.0 5.4 97 0.2 WNW 4 6 2 3 - - 0.0
30/03:50am 5.9 4.5 5.5 97 0.2 WSW 2 4 1 2 - - 0.0
30/03:40am 5.9 4.5 5.4 97 0.2 SSW 2 4 1 2 - - 0.0
30/03:30am 5.9 4.1 5.4 97 0.2 ESE 4 4 2 2 - - 0.0
30/03:20am 5.9 4.1 5.5 97 0.2 E 4 4 2 2 - - 0.0
30/03:10am 5.9 4.1 5.4 97 0.2 NE 4 6 2 3 - - 0.0
30/03:00am 5.8 4.0 5.3 97 0.2 NNE 4 6 2 3 - - 0.0
30/02:50am 5.8 4.4 5.3 97 0.2 NW 2 4 1 2 - - 0.0
30/02:40am 5.9 4.1 5.4 97 0.2 NNW 4 4 2 2 - - 0.0
30/02:30am 6.0 4.2 5.4 96 0.3 N 4 4 2 2 - - 0.0
30/02:20am 6.2 4.5 5.7 97 0.2 NE 4 4 2 2 - - 0.0
30/02:10am 6.3 5.0 5.8 97 0.2 ENE 2 4 1 2 - - 0.0
30/02:00am 6.2 4.5 5.7 97 0.2 ENE 4 4 2 2 - - 0.0
30/01:50am 6.2 4.5 5.7 97 0.2 NE 4 4 2 2 - - 0.0
30/01:40am 6.2 4.8 5.7 97 0.2 NNE 2 2 1 1 - - 0.0
30/01:30am 6.2 4.8 5.6 96 0.3 W 2 4 1 2 - - 0.0
30/01:20am 6.3 5.0 5.8 97 0.2 W 2 2 1 1 - - 0.0
30/01:10am 6.3 5.0 5.8 97 0.2 W 2 2 1 1 - - 0.0
30/01:00am 6.2 5.2 5.7 97 0.2 CALM 0 2 0 1 - - 0.0
30/12:50am 6.1 4.7 5.6 97 0.2 WNW 2 2 1 1 - - 0.0
30/12:40am 6.0 4.2 5.5 97 0.2 W 4 4 2 2 - - 0.0
30/12:30am 5.9 4.5 5.4 97 0.2 SW 2 4 1 2 - - 0.0
30/12:20am 5.8 4.3 5.2 96 0.3 SW 2 2 1 1 - - 0.0
30/12:10am 5.7 3.9 5.2 97 0.2 SW 4 4 2 2 - - 0.0
30/12:00am 5.7 4.2 5.1 96 0.3 S 2 4 1 2 - - 0.0
 
Date/Time
EST
Temp
°C
App
Temp
°C
Dew
Point
°C
Rel
Hum
%
Delta-T
°C
Wind Press
QNH
hPa
Press
MSL
hPa
Rain since
9am
mm
Dir  Spd
km/h
Gust
km/h
Spd
kts
Gust
kts
29/11:50pm 5.7 4.2 5.2 97 0.2 SE 2 2 1 1 - - 0.0
29/11:40pm 5.7 4.2 5.2 97 0.2 ESE 2 2 1 1 - - 0.0
29/11:30pm 5.6 4.1 5.1 97 0.2 ENE 2 2 1 1 - - 0.0
29/11:20pm 5.8 4.3 5.2 96 0.3 E 2 2 1 1 - - 0.0
29/11:10pm 5.9 4.5 5.4 97 0.2 ENE 2 4 1 2 - - 0.0
29/11:00pm 5.9 4.1 5.4 97 0.2 NNE 4 4 2 2 - - 0.0
29/10:50pm 5.9 4.1 5.4 97 0.2 NNE 4 4 2 2 - - 0.0
29/10:40pm 5.6 3.3 5.0 96 0.3 NE 6 6 3 3 - - 0.0
29/10:30pm 5.4 3.5 4.8 96 0.3 NE 4 6 2 3 - - 0.0
29/10:20pm 5.3 3.7 4.7 96 0.3 N 2 2 1 1 - - 0.0
29/10:10pm 5.3 3.7 4.5 95 0.3 ENE 2 2 1 1 - - 0.0
29/10:00pm 5.6 3.7 4.7 94 0.4 W 4 4 2 2 - - 0.0
29/09:50pm 6.4 5.0 5.7 95 0.3 NNE 2 4 1 2 - - 0.0
29/09:40pm 6.5 5.2 5.8 95 0.3 NE 2 2 1 1 - - 0.0
29/09:30pm 6.3 4.9 5.7 96 0.3 E 2 4 1 2 - - 0.0
29/09:20pm 6.1 4.3 5.4 95 0.3 SE 4 6 2 3 - - 0.0
29/09:10pm 6.4 5.0 5.5 94 0.4 E 2 2 1 1 - - 0.0
29/09:00pm 6.5 5.1 5.7 95 0.4 ESE 2 2 1 1 - - 0.0
29/08:50pm 6.8 5.5 6.0 95 0.4 NE 2 4 1 2 - - 0.0
29/08:40pm 6.5 4.8 5.7 95 0.4 NNE 4 6 2 3 - - 0.0
29/08:30pm 6.5 4.4 5.8 95 0.3 N 6 7 3 4 - - 0.0
29/08:20pm 6.7 5.0 5.9 95 0.4 N 4 6 2 3 - - 0.0
29/08:10pm 6.7 4.6 5.8 94 0.4 NW 6 6 3 3 - - 0.0
29/08:00pm 6.8 5.5 5.8 93 0.5 WNW 2 4 1 2 - - 0.0
29/07:50pm 7.1 5.4 5.8 91 0.6 NE 4 6 2 3 - - 0.0
29/07:40pm 7.3 5.2 5.8 90 0.7 NE 6 7 3 4 - - 0.0
29/07:30pm 7.6 5.9 6.1 90 0.7 NE 4 6 2 3 - - 0.0
29/07:20pm 8.1 6.8 6.2 88 0.9 NE 2 4 1 2 - - 0.0
29/07:10pm 8.4 6.8 6.3 87 1.0 ESE 4 4 2 2 - - 0.0
29/07:00pm 8.3 7.1 6.5 88 0.8 E 2 4 1 2 - - 0.0
29/06:50pm 8.5 6.9 6.3 86 1.0 E 4 6 2 3 - - 0.0
29/06:40pm 8.3 6.4 6.6 89 0.8 E 6 6 3 3 - - 0.0
29/06:30pm 8.5 6.6 6.7 88 0.8 ENE 6 6 3 3 - - 0.0
29/06:20pm 8.7 7.2 6.9 88 0.8 NE 4 6 2 3 - - 0.0
29/06:10pm 9.0 7.8 6.6 85 1.1 NE 2 2 1 1 - - 0.0
29/06:00pm 9.1 7.9 6.4 83 1.3 ESE 2 2 1 1 - - 0.0
29/05:50pm 9.1 7.9 6.6 84 1.2 SE 2 4 1 2 - - 0.0
29/05:40pm 9.8 8.7 6.7 81 1.5 ESE 2 2 1 1 - - 0.0
29/05:30pm 10.2 9.1 6.7 79 1.7 ENE 2 2 1 1 - - 0.0
29/05:20pm 10.2 9.0 6.5 78 1.7 E 2 2 1 1 - - 0.0
29/05:10pm 10.3 9.2 7.0 80 1.6 N 2 2 1 1 - - 0.0
29/05:00pm 10.5 9.1 7.1 79 1.6 WNW 4 4 2 2 - - 0.0
29/04:50pm 10.9 9.6 7.6 80 1.6 NW 4 6 2 3 - - 0.0
29/04:40pm 11.2 9.6 7.8 79 1.7 NNW 6 6 3 3 - - 0.0
29/04:30pm 11.5 9.8 7.7 77 1.9 N 6 7 3 4 - - 0.0
29/04:20pm 11.9 10.1 7.8 76 2.0 NNW 7 7 4 4 - - 0.0
29/04:10pm 12.4 10.5 7.6 72 2.4 N 7 7 4 4 - - 0.0
29/04:00pm 12.9 11.1 7.0 67 2.9 N 6 7 3 4 - - 0.0

Other formats

Comma delimited format used in spreadsheet applications
http://www.bom.gov.au/fwo/IDN60801/IDN60801.99792.axf

JavaScript Object Notation format (JSON) in row-major order
http://www.bom.gov.au/fwo/IDN60801/IDN60801.99792.json

Data quality

Most of these data are generated automatically and are frequently updated. Quality checks on data are not normally performed. It is possible for incorrect values to appear. Refer to information at About Latest Weather Observations and please check the disclaimer before using these data.